Latest Weather Observations for Warburton

IDD60801

Issued at 9:05 am CST Friday 19 September 2014 (issued every 30 minutes, with the page automatically refreshed every 10 minutes)

About weather observations | Map of weather stations | Latest weather observations for NT | Other Formats
Station Details ID: 013011 Name: WARBURTON AIRFIELD Lat: -26.13 Lon: 126.58 Height: 459.0 m
Data from the previous 72 hours. | See also: Recent months at Warburton
Date/Time
CST
Temp
°C
App
Temp
°C
Dew
Point
Rel
Hum
%
Delta-T
°C
Wind Press
QNH
hPa
Press
MSL
hPa
Rain
since 9 am
mm
Dir
 
Spd
km/h
Gust
km/h
Spd
kts
Gust
kts
19/09:00am 22.8 18.8 4.8 31 9.1 ENE 15 22 8 12 1018.0 - 0.0
19/08:30am 21.7 18.4 4.3 32 8.7 E 11 17 6 9 1017.9 - 0.0
19/08:00am 19.8 16.6 5.1 38 7.3 E 11 19 6 10 1017.5 - 0.0
19/07:30am 18.0 13.8 5.6 44 6.2 E 17 20 9 11 1017.0 1015.4 0.0
19/07:00am 17.5 13.7 5.8 46 5.8 SE 15 20 8 11 1016.5 - 0.0
19/06:30am 17.9 14.1 5.8 45 6.1 ESE 15 22 8 12 1016.3 - 0.0
19/06:00am 17.7 13.9 5.9 46 5.9 ESE 15 20 8 11 1015.8 - 0.0
19/05:30am 17.7 14.0 6.3 47 5.8 ESE 15 20 8 11 1015.5 - 0.0
19/05:00am 17.5 14.6 6.4 48 5.6 ESE 11 15 6 8 1015.6 - 0.0
19/04:30am 17.4 15.5 6.6 49 5.5 SE 6 9 3 5 1015.7 1014.1 0.0
19/04:00am 17.8 14.6 6.7 48 5.6 E 13 19 7 10 1015.7 - 0.0
19/03:30am 18.0 14.3 6.5 47 5.8 ESE 15 19 8 10 1016.0 - 0.0
19/03:00am 18.3 15.0 6.5 46 6.0 ESE 13 17 7 9 1016.0 - 0.0
19/02:30am 18.6 15.7 6.4 45 6.2 ESE 11 15 6 8 1016.2 - 0.0
19/02:00am 19.2 15.9 6.3 43 6.6 ESE 13 15 7 8 1016.6 - 0.0
19/01:30am 19.9 16.2 6.3 41 7.0 ESE 15 19 8 10 1017.0 1015.4 0.0
19/01:00am 19.9 17.0 6.3 41 7.0 SE 11 13 6 7 1017.3 - 0.0
19/12:30am 20.4 16.3 6.0 39 7.4 ESE 17 20 9 11 1017.2 - 0.0
19/12:00am 21.0 17.1 5.4 36 7.9 ESE 15 24 8 13 1017.4 - 0.0
 
Date/Time
CST
Temp
°C
App
Temp
°C
Dew
Point
Rel
Hum
%
Delta-T
°C
Wind Press
QNH
hPa
Press
MSL
hPa
Rain
since 9 am
mm
Dir
 
Spd
km/h
Gust
km/h
Spd
kts
Gust
kts
18/11:30pm 22.2 17.8 4.7 32 8.8 SE 17 24 9 13 1017.3 - 0.0
18/11:00pm 23.5 18.7 4.5 29 9.6 ESE 19 26 10 14 1017.2 - 0.0
18/10:30pm 24.1 19.8 3.4 26 10.3 ESE 15 20 8 11 1017.3 1015.7 0.0
18/10:00pm 25.0 20.3 3.0 24 10.9 ESE 17 20 9 11 1016.9 - 0.0
18/09:30pm 25.2 20.9 3.2 24 11.0 E 15 20 8 11 1016.6 - 0.0
18/09:00pm 25.7 21.6 2.4 22 11.5 E 13 17 7 9 1016.3 - 0.0
18/08:30pm 26.8 21.5 2.0 20 12.3 E 19 24 10 13 1015.5 - 0.0
18/08:00pm 27.4 22.6 2.5 20 12.5 E 17 24 9 13 1015.4 - 0.0
18/07:30pm 28.6 22.5 2.7 19 13.1 SE 24 33 13 18 1014.9 1013.3 0.0
18/07:00pm 29.7 23.9 2.1 17 13.9 ESE 22 30 12 16 1014.1 - 0.0
18/06:30pm 30.6 25.5 1.0 15 14.8 E 17 20 9 11 1013.8 - 0.0
18/06:00pm 31.6 26.0 0.9 14 15.4 E 20 26 11 14 1013.4 - 0.0
18/05:30pm 32.4 26.9 0.5 13 15.9 E 19 26 10 14 1013.3 - 0.0
18/05:00pm 32.6 26.9 0.6 13 16.0 E 20 26 11 14 1013.4 - 0.0
18/04:30pm 32.5 27.4 0.6 13 16.0 E 17 24 9 13 1013.5 1011.9 0.0
18/04:00pm 32.3 26.4 1.4 14 15.7 SE 22 33 12 18 1013.8 - 0.0
18/03:30pm 32.1 25.8 1.3 14 15.6 SE 24 33 13 18 1014.2 - 0.0
18/03:00pm 32.6 27.7 1.7 14 15.8 SE 17 30 9 16 1014.6 - 0.0
18/02:30pm 31.5 24.9 1.8 15 15.1 SE 26 39 14 21 1015.0 - 0.0
18/02:00pm 30.2 23.7 2.5 17 14.1 SE 26 35 14 19 1015.6 - 0.0
18/01:30pm 30.6 24.5 2.8 17 14.3 ESE 24 37 13 20 1016.0 1014.4 0.0
18/01:00pm 29.6 23.6 3.5 19 13.5 ESE 24 33 13 18 1016.5 - 0.0
18/12:30pm 29.4 23.7 2.6 18 13.6 SE 22 33 12 18 1017.3 - 0.0
18/12:00pm 30.1 24.9 2.4 17 14.1 S 19 33 10 18 1018.2 - 0.0
18/11:30am 30.2 25.6 1.6 16 14.4 ENE 15 26 8 14 1017.4 - 0.0
18/11:00am 28.6 24.1 2.0 18 13.3 ENE 15 22 8 12 1017.8 - 0.0
18/10:30am 27.6 24.1 3.3 21 12.3 E 11 22 6 12 1018.1 1016.5 0.0
18/10:00am 24.9 20.6 3.5 25 10.7 ENE 15 24 8 13 1017.8 - 0.0
18/09:30am 23.0 18.0 3.5 28 9.7 NE 19 26 10 14 1017.8 - 0.0
18/09:00am 21.9 17.7 3.6 30 9.0 ENE 15 22 8 12 1017.6 - 0.0
18/08:30am 20.8 17.0 4.0 33 8.3 E 13 22 7 12 1017.5 - 0.0
18/08:00am 20.1 15.6 4.2 35 7.8 E 17 22 9 12 1017.3 - 0.0
18/07:30am 19.6 15.5 4.5 37 7.4 E 15 20 8 11 1017.2 1015.6 0.0
18/07:00am 19.3 15.2 4.6 38 7.3 ESE 15 20 8 11 1017.1 - 0.0
18/06:30am 19.7 14.7 4.6 37 7.5 E 20 26 11 14 1016.6 - 0.0
18/06:00am 20.1 16.0 4.6 36 7.7 ESE 15 22 8 12 1016.5 - 0.0
18/05:30am 20.3 15.9 4.8 36 7.7 E 17 24 9 13 1016.2 - 0.0
18/05:00am 20.2 15.8 4.7 36 7.7 E 17 24 9 13 1016.1 - 0.0
18/04:30am 20.7 16.3 4.7 35 8.0 ESE 17 26 9 14 1016.1 1014.5 0.0
18/04:00am 20.7 15.7 4.7 35 8.0 E 20 28 11 15 1015.9 - 0.0
18/03:30am 21.0 15.2 4.6 34 8.2 ESE 24 32 13 17 1016.0 - 0.0
18/03:00am 21.2 16.2 4.7 34 8.3 ESE 20 32 11 17 1016.3 - 0.0
18/02:30am 21.6 16.2 4.7 33 8.5 E 22 32 12 17 1016.6 - 0.0
18/02:00am 22.1 16.7 4.6 32 8.8 ESE 22 33 12 18 1017.1 - 0.0
18/01:30am 22.2 17.1 4.3 31 8.9 ESE 20 28 11 15 1017.4 1015.8 0.0
18/01:00am 22.6 17.6 4.6 31 9.1 ESE 20 32 11 17 1017.7 - 0.0
18/12:30am 23.2 19.2 4.7 30 9.4 ESE 15 20 8 11 1017.8 - 0.0
18/12:00am 23.1 19.3 4.1 29 9.5 ESE 13 19 7 10 1017.7 - 0.0
 
Date/Time
CST
Temp
°C
App
Temp
°C
Dew
Point
Rel
Hum
%
Delta-T
°C
Wind Press
QNH
hPa
Press
MSL
hPa
Rain
since 9 am
mm
Dir
 
Spd
km/h
Gust
km/h
Spd
kts
Gust
kts
17/11:30pm 23.5 19.7 4.0 28 9.8 ESE 13 17 7 9 1017.9 - 0.0
17/11:00pm 24.5 19.9 3.8 26 10.4 ESE 17 24 9 13 1018.1 - 0.0
17/10:30pm 25.0 20.4 3.6 25 10.7 ESE 17 22 9 12 1018.2 1016.6 0.0
17/10:00pm 25.2 20.6 3.8 25 10.8 ESE 17 24 9 13 1018.1 - 0.0
17/09:30pm 25.3 20.7 3.9 25 10.8 ESE 17 24 9 13 1018.1 - 0.0
17/09:00pm 25.5 21.0 4.0 25 10.9 ESE 17 22 9 12 1017.9 - 0.0
17/08:30pm 25.8 21.3 4.3 25 11.0 ESE 17 24 9 13 1017.7 - 0.0
17/08:00pm 26.3 21.4 4.1 24 11.4 ESE 19 24 10 13 1017.3 - 0.0
17/07:30pm 26.9 22.0 4.0 23 11.7 ESE 19 24 10 13 1016.9 1015.3 0.0
17/07:00pm 27.6 22.5 4.0 22 12.2 ESE 20 28 11 15 1016.6 - 0.0
17/06:30pm 29.0 23.1 3.8 20 13.0 SE 24 32 13 17 1016.3 - 0.0
17/06:00pm 29.5 23.9 3.5 19 13.4 ESE 22 28 12 15 1016.0 - 0.0
17/05:30pm 29.3 24.1 3.3 19 13.4 ESE 20 26 11 14 1016.0 - 0.0
17/05:00pm 29.1 23.2 3.9 20 13.1 ESE 24 30 13 16 1015.8 - 0.0
17/04:30pm 29.3 23.0 4.0 20 13.2 ESE 26 35 14 19 1015.6 1014.0 0.0
17/04:00pm 30.8 24.1 3.8 18 14.1 ESE 28 39 15 21 1015.6 - 0.0
17/03:30pm 29.9 23.2 3.8 19 13.6 E 28 39 15 21 1015.6 - 0.0
17/03:00pm 30.0 23.6 3.1 18 13.8 SE 26 32 14 17 1016.3 - 0.0
17/02:30pm 30.8 25.5 2.9 17 14.4 ESE 20 28 11 15 1017.0 - 0.0
17/02:00pm 30.9 26.8 2.2 16 14.6 E 13 20 7 11 1017.2 - 0.0
17/01:30pm 31.7 26.6 2.8 16 14.9 E 19 30 10 16 1017.4 1015.8 0.0
17/01:00pm 30.3 25.1 2.5 17 14.2 ENE 19 28 10 15 1017.7 - 0.0
17/12:30pm 30.0 25.1 2.3 17 14.1 ESE 17 26 9 14 1018.5 - 0.0
17/12:00pm 28.4 23.6 2.6 19 13.0 ENE 17 30 9 16 1019.4 - 0.0
17/11:30am 28.0 23.3 3.0 20 12.7 ENE 17 28 9 15 1019.6 - 0.0
17/11:00am 27.5 22.4 3.2 21 12.3 ENE 19 26 10 14 1019.9 - 0.0
17/10:30am 26.5 20.9 3.7 23 11.6 E 22 35 12 19 1019.9 1018.3 0.0
17/10:00am 25.3 20.1 3.3 24 11.0 ENE 20 32 11 17 1019.5 - 0.0
17/09:30am 24.1 18.9 3.4 26 10.3 E 20 28 11 15 1019.6 - 0.0
17/09:00am 23.5 18.6 4.0 28 9.8 E 19 33 10 18 1019.0 - 0.0
17/08:30am 22.6 17.0 3.2 28 9.5 E 22 33 12 18 1018.9 - 0.0
17/08:00am 22.1 15.3 3.3 29 9.2 ENE 28 50 15 27 1018.4 - 0.0
17/07:55am 22.4 15.6 3.0 28 9.5 ENE 28 46 15 25 1018.1 - 0.0
17/07:30am 20.5 15.5 3.7 33 8.2 ESE 19 26 10 14 1018.2 1016.6 0.0
17/07:00am 20.2 15.1 3.9 34 8.0 NE 20 28 11 15 1018.0 - 0.0
17/06:30am 20.1 15.6 4.2 35 7.8 E 17 26 9 14 1018.1 - 0.0
17/06:00am 20.0 16.2 4.1 35 7.8 E 13 20 7 11 1018.3 - 0.0
17/05:30am 19.8 15.6 3.9 35 7.8 E 15 22 8 12 1017.8 - 0.0
17/05:00am 19.9 14.4 4.0 35 7.8 E 22 32 12 17 1017.2 - 0.0
17/04:30am 19.7 14.8 4.2 36 7.6 ESE 19 26 10 14 1017.3 1015.7 0.0
17/04:00am 19.9 15.4 4.0 35 7.8 E 17 24 9 13 1017.6 - 0.0
17/03:30am 20.0 14.1 3.7 34 7.9 E 24 33 13 18 1017.3 - 0.0
17/03:00am 20.2 15.2 3.4 33 8.1 SSE 19 28 10 15 1018.6 - 0.0
17/02:30am 20.3 14.0 3.5 33 8.2 E 26 41 14 22 1017.8 - 0.0
17/02:00am 20.4 14.1 3.6 33 8.2 E 26 43 14 23 1018.0 - 0.0
17/01:30am 20.3 14.0 3.5 33 8.2 ESE 26 35 14 19 1018.5 1017.0 0.0
17/01:00am 20.4 14.1 3.6 33 8.2 E 26 35 14 19 1018.9 - 0.0
17/12:30am 20.7 14.8 3.9 33 8.3 ESE 24 33 13 18 1019.6 - 0.0
17/12:00am 20.8 14.8 3.5 32 8.4 ESE 24 35 13 19 1019.4 - 0.0
 
Date/Time
CST
Temp
°C
App
Temp
°C
Dew
Point
Rel
Hum
%
Delta-T
°C
Wind Press
QNH
hPa
Press
MSL
hPa
Rain
since 9 am
mm
Dir
 
Spd
km/h
Gust
km/h
Spd
kts
Gust
kts
16/11:30pm 20.8 13.7 3.5 32 8.4 ESE 30 41 16 22 1019.2 - 0.0
16/11:00pm 20.9 13.8 3.6 32 8.5 ESE 30 43 16 23 1019.0 - 0.0
16/10:35pm 20.8 13.3 3.5 32 8.4 ESE 32 50 17 27 1018.4 - 0.0
16/10:30pm 20.7 12.6 3.0 31 8.5 ESE 35 50 19 27 1018.4 1016.8 0.0
16/10:00pm 20.8 12.7 3.5 32 8.4 SE 35 46 19 25 1018.8 - 0.0
16/09:33pm 20.9 13.2 5.3 36 7.9 SE 35 54 19 29 1019.0 - 0.0
16/09:30pm 20.9 12.8 5.3 36 7.9 SE 37 54 20 29 1019.0 - 0.0
16/09:18pm 21.0 13.3 5.4 36 7.9 SE 35 54 19 29 1018.9 - 0.0
16/09:00pm 21.3 13.4 6.0 37 7.9 SE 37 52 20 28 1019.0 - 0.0
16/08:33pm 21.5 14.4 6.2 37 7.9 SSE 33 52 18 28 1018.5 - 0.0
16/08:30pm 21.6 14.7 6.3 37 7.9 SSE 32 44 17 24 1018.4 - 0.0
16/08:11pm 22.0 14.4 5.8 35 8.3 SSE 35 54 19 29 1018.1 - 0.0
16/08:00pm 22.2 14.6 6.0 35 8.4 SSE 35 52 19 28 1017.8 - 0.0
16/07:39pm 22.7 16.1 6.0 34 8.6 SSE 30 48 16 26 1017.2 - 0.0
16/07:30pm 23.0 15.9 6.3 34 8.7 SSE 33 50 18 27 1017.1 1015.5 0.0
16/07:00pm 24.6 17.4 5.9 30 9.8 SSE 33 46 18 25 1016.3 - 0.0
16/06:30pm 26.7 19.3 3.9 23 11.7 SSE 32 54 17 29 1015.7 - 0.0
16/06:00pm 27.9 21.2 1.4 18 13.1 SSE 26 33 14 18 1015.4 - 0.0
16/05:30pm 28.5 22.5 1.1 17 13.5 SE 22 32 12 17 1015.0 - 0.0
16/05:00pm 29.2 23.3 1.7 17 13.7 SE 22 32 12 17 1014.6 - 0.0
16/04:30pm 30.4 24.5 1.8 16 14.4 SE 22 35 12 19 1014.4 1012.8 0.0
16/04:00pm 29.9 23.7 2.2 17 14.0 SE 24 35 13 19 1014.7 - 0.0
16/03:30pm 30.1 25.6 2.4 17 14.1 SE 15 26 8 14 1015.2 - 0.0
16/03:00pm 29.2 24.6 1.7 17 13.7 SSE 15 26 8 14 1015.5 - 0.0
16/02:30pm 30.2 25.0 2.5 17 14.1 SSE 19 32 10 17 1015.7 - 0.0
16/02:00pm 29.5 25.5 2.7 18 13.7 SE 13 22 7 12 1016.2 - 0.0
16/01:30pm 28.8 24.4 2.9 19 13.2 SE 15 22 8 12 1016.6 1015.1 0.0
16/01:00pm 28.9 24.7 3.7 20 13.0 ESE 15 26 8 14 1017.0 - 0.0
16/12:30pm 27.6 22.9 3.3 21 12.4 ESE 17 26 9 14 1017.5 - 0.0
16/12:00pm 27.0 22.5 4.1 23 11.8 E 17 26 9 14 1017.7 - 0.0
16/11:30am 25.6 20.7 4.1 25 11.0 E 19 32 10 17 1018.1 - 0.0
16/11:00am 24.3 19.4 4.1 27 10.2 ESE 19 30 10 16 1018.6 - 0.0

Other Formats:

Comma delimited format used in spreadsheet applications
http://www.bom.gov.au/fwo/IDD60801/IDD60801.94457.axf

JavaScript Object Notation format (JSON) in row-major order
http://www.bom.gov.au/fwo/IDD60801/IDD60801.94457.json